createdAt,value
2023-01-05T00:01:49.527Z,5.50
2023-01-05T00:04:17.075Z,6.00
2023-01-05T00:06:44.859Z,5.63
2023-01-05T00:09:14.224Z,4.43
2023-01-05T00:12:00.373Z,4.15
2023-01-05T00:14:49.121Z,4.72
2023-01-05T00:17:40.674Z,4.18
2023-01-05T00:20:32.626Z,5.10
2023-01-05T00:23:00.567Z,4.60
2023-01-05T00:25:30.904Z,5.40
2023-01-05T00:27:58.863Z,3.60
2023-01-05T00:30:33.199Z,4.53
2023-01-05T00:33:01.707Z,4.40
2023-01-05T00:35:31.245Z,4.88
2023-01-05T00:37:58.760Z,5.30
2023-01-05T00:40:26.122Z,4.10
2023-01-05T00:42:53.602Z,4.90
2023-01-05T00:45:22.277Z,3.95
2023-01-05T00:47:52.186Z,4.80
2023-01-05T00:53:02.089Z,5.15
2023-01-05T00:55:29.556Z,4.40
2023-01-05T00:57:57.058Z,3.67
2023-01-05T01:00:24.577Z,3.95
2023-01-05T01:02:55.443Z,4.47
2023-01-05T01:05:23.363Z,4.18
2023-01-05T01:07:51.006Z,4.72
2023-01-05T01:10:18.562Z,4.18
2023-01-05T01:12:45.978Z,4.00
2023-01-05T01:15:13.460Z,4.60
2023-01-05T01:17:42.850Z,4.32
2023-01-05T01:20:10.551Z,4.43
2023-01-05T01:22:38.203Z,4.10
2023-01-05T01:25:07.194Z,4.95
2023-01-05T01:27:34.626Z,4.82
2023-01-05T01:30:01.993Z,5.20
2023-01-05T01:32:29.327Z,4.82
2023-01-05T01:34:56.776Z,5.43
2023-01-05T01:37:24.249Z,5.03
2023-01-05T01:39:54.967Z,4.53
2023-01-05T01:42:23.055Z,4.38
2023-01-05T01:44:54.731Z,4.55
2023-01-05T01:47:43.989Z,5.20
2023-01-05T01:50:24.644Z,4.28
2023-01-05T01:52:58.852Z,5.28
2023-01-05T01:55:28.331Z,5.10
2023-01-05T01:57:56.100Z,5.85
2023-01-05T02:00:23.697Z,5.65
2023-01-05T02:02:54.929Z,5.68
2023-01-05T02:05:29.767Z,5.43
2023-01-05T02:07:57.836Z,5.18
2023-01-05T02:10:43.802Z,4.88
2023-01-05T02:13:31.955Z,5.03
2023-01-05T02:16:03.379Z,4.88
2023-01-05T02:19:04.382Z,5.38
2023-01-05T02:21:54.738Z,5.45
2023-01-05T02:24:44.865Z,5.10
2023-01-05T02:27:28.721Z,4.20
2023-01-05T02:30:27.163Z,4.68
2023-01-05T02:33:11.389Z,4.78
2023-01-05T02:35:57.729Z,4.28
2023-01-05T02:38:52.582Z,4.78
2023-01-05T02:41:29.600Z,4.72
2023-01-05T02:43:58.667Z,4.35
2023-01-05T02:46:26.667Z,5.03
2023-01-05T02:48:58.530Z,4.88
2023-01-05T02:51:35.384Z,4.78
2023-01-05T02:54:15.764Z,5.10
2023-01-05T02:57:05.189Z,4.55
2023-01-05T02:59:47.799Z,4.15
2023-01-05T03:02:26.520Z,4.43
2023-01-05T03:04:58.494Z,3.85
2023-01-05T03:07:31.455Z,4.10
2023-01-05T03:10:19.095Z,4.05
2023-01-05T03:13:06.298Z,4.28
2023-01-05T03:15:35.287Z,4.47
2023-01-05T03:18:09.463Z,3.42
2023-01-05T03:20:44.349Z,3.70
2023-01-05T03:23:32.502Z,3.95
2023-01-05T03:26:18.315Z,3.95
2023-01-05T03:29:26.503Z,3.88
2023-01-05T03:32:33.107Z,3.85
2023-01-05T03:35:31.463Z,3.50
2023-01-05T03:38:18.071Z,3.53
2023-01-05T03:40:50.099Z,3.17
2023-01-05T03:43:19.278Z,3.42
2023-01-05T03:45:57.894Z,3.38
2023-01-05T03:48:29.237Z,3.40
2023-01-05T03:50:56.860Z,4.05
2023-01-05T03:53:26.075Z,2.42
2023-01-05T03:55:54.235Z,3.08
2023-01-05T03:58:23.805Z,4.07
2023-01-05T04:00:52.622Z,3.83
2023-01-05T04:03:27.756Z,3.70
2023-01-05T04:05:59.009Z,3.72
2023-01-05T04:08:29.268Z,3.90
2023-01-05T04:10:58.340Z,3.60
2023-01-05T04:13:26.176Z,3.90
2023-01-05T04:15:56.350Z,3.53
2023-01-05T04:18:24.164Z,3.97
2023-01-05T04:20:52.684Z,3.95
2023-01-05T04:23:20.128Z,4.05
2023-01-05T04:25:48.403Z,4.70
2023-01-05T04:28:21.144Z,4.87
2023-01-05T04:30:54.219Z,5.47
2023-01-05T04:33:24.952Z,4.95
2023-01-05T04:35:53.448Z,4.35
2023-01-05T04:38:21.090Z,4.38
2023-01-05T04:40:51.411Z,4.47
2023-01-05T04:43:20.480Z,3.15
2023-01-05T04:45:50.003Z,3.35
2023-01-05T04:48:18.472Z,3.33
2023-01-05T04:50:46.018Z,3.70
2023-01-05T04:53:14.695Z,3.50
2023-01-05T04:55:45.844Z,3.20
2023-01-05T04:58:13.257Z,3.47
2023-01-05T05:00:41.901Z,2.83
2023-01-05T05:03:10.143Z,3.00
2023-01-05T05:05:38.027Z,3.22
2023-01-05T05:08:05.971Z,3.25
2023-01-05T05:10:35.552Z,2.90
2023-01-05T05:13:03.043Z,2.65
2023-01-05T05:15:31.253Z,2.65
2023-01-05T05:18:04.164Z,2.75
2023-01-05T05:20:34.625Z,2.65
2023-01-05T05:23:02.025Z,2.65
2023-01-05T05:25:32.687Z,2.80
2023-01-05T05:28:00.396Z,2.70
2023-01-05T05:30:27.761Z,2.17
2023-01-05T05:32:55.100Z,2.60
2023-01-05T05:35:22.449Z,2.63
2023-01-05T05:37:56.016Z,2.38
2023-01-05T05:40:24.493Z,2.58
2023-01-05T05:42:51.981Z,2.45
2023-01-05T05:45:19.354Z,2.17
2023-01-05T05:47:46.667Z,2.35
2023-01-05T05:50:14.086Z,2.60
2023-01-05T05:52:41.633Z,3.03
2023-01-05T05:55:09.450Z,2.67
2023-01-05T05:57:36.868Z,2.70
2023-01-05T06:00:05.191Z,2.47
2023-01-05T06:02:40.230Z,2.83
2023-01-05T06:05:08.239Z,2.75
2023-01-05T06:07:35.598Z,2.33
2023-01-05T06:10:03.133Z,2.70
2023-01-05T06:12:30.593Z,3.40
2023-01-05T06:14:58.032Z,2.83
2023-01-05T06:17:25.365Z,2.90
2023-01-05T06:19:52.722Z,3.13
2023-01-05T06:22:20.071Z,3.05
2023-01-05T06:24:47.498Z,2.90
2023-01-05T06:27:14.814Z,3.25
2023-01-05T06:29:42.144Z,3.08
2023-01-05T06:32:09.544Z,2.92
2023-01-05T06:34:36.917Z,3.33
2023-01-05T06:37:06.561Z,3.28
2023-01-05T06:39:33.987Z,3.58
2023-01-05T06:42:01.335Z,3.25
2023-01-05T06:44:28.729Z,2.53
2023-01-05T06:46:56.125Z,3.08
2023-01-05T06:49:23.628Z,2.90
2023-01-05T06:51:50.945Z,2.70
2023-01-05T06:54:18.370Z,2.20
2023-01-05T06:56:45.667Z,2.38
2023-01-05T06:59:13.433Z,2.38
2023-01-05T07:01:40.821Z,1.80
2023-01-05T07:04:08.248Z,2.22
2023-01-05T07:06:36.403Z,2.55
2023-01-05T07:09:04.019Z,2.72
2023-01-05T07:11:31.358Z,2.90
2023-01-05T07:13:58.700Z,3.17
2023-01-05T07:16:26.115Z,3.10
2023-01-05T07:18:53.543Z,2.90
2023-01-05T07:21:20.827Z,2.97
2023-01-05T07:23:48.230Z,2.97
2023-01-05T07:26:15.613Z,2.70
2023-01-05T07:28:43.162Z,3.17
2023-01-05T07:31:10.524Z,3.40
2023-01-05T07:33:40.222Z,3.60
2023-01-05T07:36:08.354Z,3.22
2023-01-05T07:38:35.718Z,4.15
2023-01-05T07:41:03.879Z,3.75
2023-01-05T07:43:31.324Z,3.78
2023-01-05T07:46:02.705Z,3.85
2023-01-05T07:48:30.330Z,3.80
2023-01-05T07:51:05.619Z,3.67
2023-01-05T07:53:43.945Z,3.90
2023-01-05T07:56:14.108Z,3.70
2023-01-05T07:58:42.662Z,3.25
2023-01-05T08:01:13.006Z,3.42
2023-01-05T08:03:41.359Z,3.72
2023-01-05T08:06:11.898Z,3.97
2023-01-05T08:08:39.514Z,3.90
2023-01-05T08:11:08.282Z,3.60
2023-01-05T08:13:54.497Z,3.78
2023-01-05T08:16:22.550Z,4.32
2023-01-05T08:18:49.884Z,4.78
2023-01-05T08:24:00.003Z,6.60
2023-01-05T08:26:27.715Z,6.47
2023-01-05T08:28:55.186Z,6.40
2023-01-05T08:31:28.397Z,5.43
2023-01-05T08:34:00.495Z,6.32
2023-01-05T08:36:28.101Z,5.03
2023-01-05T08:38:55.836Z,5.10
2023-01-05T08:41:28.627Z,4.03
2023-01-05T08:43:58.271Z,3.90
2023-01-05T08:46:28.333Z,3.55
2023-01-05T08:48:58.216Z,3.50
2023-01-05T08:51:25.800Z,3.90
2023-01-05T08:53:53.418Z,3.67
2023-01-05T08:56:21.884Z,3.90
2023-01-05T08:58:49.241Z,3.75
2023-01-05T09:01:19.514Z,3.50
2023-01-05T09:03:47.004Z,4.00
2023-01-05T09:06:14.813Z,3.72
2023-01-05T09:08:43.758Z,3.03
2023-01-05T09:11:23.339Z,2.90
2023-01-05T09:13:53.545Z,2.60
2023-01-05T09:19:12.151Z,2.67
2023-01-05T09:21:39.827Z,2.92
2023-01-05T09:24:08.192Z,2.80
2023-01-05T09:26:35.613Z,3.10
2023-01-05T09:29:03.024Z,3.17
2023-01-05T09:31:30.765Z,2.95
2023-01-05T09:33:59.099Z,3.72
2023-01-05T09:36:26.578Z,3.50
2023-01-05T09:38:54.699Z,3.78
2023-01-05T09:41:25.219Z,4.43
2023-01-05T09:43:56.654Z,3.35
2023-01-05T09:46:29.840Z,2.90
2023-01-05T09:49:01.000Z,3.20
2023-01-05T09:51:29.658Z,3.08
2023-01-05T09:53:57.731Z,2.80
2023-01-05T09:59:37.517Z,3.08
2023-01-05T10:02:27.520Z,3.35
2023-01-05T10:04:56.691Z,3.55
2023-01-05T10:07:31.996Z,3.50
2023-01-05T10:10:05.691Z,3.58
2023-01-05T10:12:58.800Z,3.13
2023-01-05T10:15:28.016Z,3.28
2023-01-05T10:17:55.380Z,3.30
2023-01-05T10:21:12.791Z,3.25
2023-01-05T10:24:10.543Z,2.70
2023-01-05T10:27:24.553Z,3.15
2023-01-05T10:30:38.598Z,2.97
2023-01-05T10:33:39.024Z,2.95
2023-01-05T10:36:49.282Z,3.10
2023-01-05T10:39:34.825Z,2.70
2023-01-05T10:42:11.478Z,2.97
2023-01-05T10:44:57.581Z,2.50
2023-01-05T10:50:32.768Z,2.58
2023-01-05T10:53:05.846Z,3.40
2023-01-05T10:55:37.839Z,2.90
2023-01-05T10:58:05.189Z,2.80
2023-01-05T11:00:42.839Z,2.60
2023-01-05T11:03:16.247Z,2.80
2023-01-05T11:05:46.833Z,3.03
2023-01-05T11:08:29.550Z,3.20
2023-01-05T11:11:05.651Z,3.67
2023-01-05T11:13:36.254Z,3.50
2023-01-05T11:16:28.242Z,3.28
2023-01-05T11:18:58.735Z,4.22
2023-01-05T11:21:47.964Z,3.85
2023-01-05T11:24:36.339Z,3.15
2023-01-05T11:27:19.569Z,3.28
2023-01-05T11:30:09.464Z,2.65
2023-01-05T11:32:36.992Z,2.45
2023-01-05T11:37:46.460Z,2.83
2023-01-05T11:40:19.441Z,3.05
2023-01-05T11:42:47.295Z,2.40
2023-01-05T11:45:21.859Z,2.25
2023-01-05T11:47:53.389Z,2.80
2023-01-05T11:50:31.342Z,2.30
2023-01-05T11:53:01.480Z,3.08
2023-01-05T11:55:40.135Z,2.65
2023-01-05T11:58:27.884Z,2.92
2023-01-05T12:01:13.962Z,2.75
2023-01-05T12:04:23.164Z,2.20
2023-01-05T12:07:07.421Z,2.38
2023-01-05T12:09:45.243Z,2.40
2023-01-05T12:12:37.536Z,2.30
2023-01-05T12:15:30.865Z,2.80
2023-01-05T12:18:22.145Z,3.28
2023-01-05T12:20:55.628Z,2.42
2023-01-05T12:23:41.585Z,3.00
2023-01-05T12:26:21.949Z,2.88
2023-01-05T12:35:42.764Z,3.03
2023-01-05T12:38:28.326Z,3.47
2023-01-05T12:41:34.440Z,2.75
2023-01-05T12:44:22.263Z,2.97
2023-01-05T12:47:22.173Z,3.00
2023-01-05T12:50:00.620Z,2.30
2023-01-05T12:53:10.330Z,2.13
2023-01-05T12:55:46.151Z,1.80
2023-01-05T12:58:37.872Z,2.08
2023-01-05T13:01:11.357Z,2.00
2023-01-05T13:04:17.788Z,1.70
2023-01-05T13:06:50.510Z,2.03
2023-01-05T13:09:22.882Z,1.77
2023-01-05T13:11:56.858Z,1.75
2023-01-05T13:14:29.949Z,1.55
2023-01-05T13:17:15.342Z,1.50
2023-01-05T13:19:48.514Z,1.70
2023-01-05T13:22:29.561Z,1.50
2023-01-05T13:25:12.257Z,1.50
2023-01-05T13:27:39.664Z,1.75
2023-01-05T13:30:08.485Z,1.80
2023-01-05T13:32:47.714Z,1.88
2023-01-05T13:35:34.816Z,1.70
2023-01-05T13:38:18.099Z,1.48
2023-01-05T13:41:33.197Z,1.77
2023-01-05T13:44:28.871Z,1.60
2023-01-05T13:47:27.046Z,1.73
2023-01-05T13:50:16.422Z,2.10
2023-01-05T13:53:14.520Z,1.60
2023-01-05T13:55:50.997Z,1.65
2023-01-05T13:58:39.814Z,1.67
2023-01-05T14:01:13.768Z,1.58
2023-01-05T14:06:27.820Z,2.05
2023-01-05T14:09:05.942Z,1.88
2023-01-05T14:11:36.409Z,1.85
2023-01-05T14:14:08.668Z,2.40
2023-01-05T14:16:36.144Z,2.00
2023-01-05T14:19:31.640Z,2.10
2023-01-05T14:22:19.298Z,1.92
2023-01-05T14:24:49.634Z,2.42
2023-01-05T14:27:23.800Z,2.33
2023-01-05T14:29:54.099Z,2.20
2023-01-05T14:32:41.121Z,1.95
2023-01-05T14:35:31.935Z,2.10
2023-01-05T14:38:23.695Z,2.03
2023-01-05T14:43:37.749Z,2.03
2023-01-05T14:46:18.453Z,1.92
2023-01-05T14:49:03.983Z,1.80
2023-01-05T14:51:38.202Z,1.90
2023-01-05T14:54:06.651Z,1.67
2023-01-05T14:56:36.885Z,1.80
2023-01-05T14:59:23.977Z,1.52
2023-01-05T15:02:00.631Z,1.90
2023-01-05T15:04:37.626Z,1.95
2023-01-05T15:07:18.450Z,2.20
2023-01-05T15:10:16.960Z,2.10
2023-01-05T15:12:53.169Z,2.30
2023-01-05T15:15:57.918Z,1.90
2023-01-05T15:21:01.530Z,2.08
2023-01-05T15:26:30.325Z,2.33
2023-01-05T15:29:27.908Z,2.03
2023-01-05T15:32:12.809Z,2.30
2023-01-05T15:35:02.088Z,1.98
2023-01-05T15:37:52.485Z,2.20
2023-01-05T15:40:22.637Z,2.08
2023-01-05T15:42:56.371Z,2.28
2023-01-05T15:47:54.516Z,2.38
2023-01-05T15:50:33.325Z,2.30
2023-01-05T15:53:02.142Z,2.30
2023-01-05T15:55:30.488Z,2.05
2023-01-05T15:58:06.425Z,1.95
2023-01-05T16:00:36.260Z,1.95
2023-01-05T16:03:22.769Z,2.05
2023-01-05T16:05:57.579Z,1.90
2023-01-05T16:08:25.191Z,1.80
2023-01-05T16:10:59.841Z,1.77
2023-01-05T16:13:37.586Z,1.83
2023-01-05T16:16:12.945Z,2.53
2023-01-05T16:18:48.568Z,2.30
2023-01-05T16:21:28.816Z,2.45
2023-01-05T16:23:58.847Z,2.70
2023-01-05T16:26:26.458Z,3.10
2023-01-05T16:28:53.806Z,2.78
2023-01-05T16:31:36.062Z,2.72
2023-01-05T16:34:29.640Z,3.10
2023-01-05T16:37:02.421Z,2.95
2023-01-05T16:39:37.324Z,3.05
2023-01-05T16:42:30.154Z,3.10
2023-01-05T16:44:59.191Z,3.10
2023-01-05T16:47:36.993Z,3.13
2023-01-05T16:50:31.087Z,3.30
2023-01-05T16:53:10.731Z,2.88
2023-01-05T16:55:38.800Z,2.92
2023-01-05T16:58:31.025Z,2.83
2023-01-05T17:01:26.463Z,2.53
2023-01-05T17:03:54.596Z,3.00
2023-01-05T17:06:28.962Z,3.30
2023-01-05T17:09:00.253Z,3.00
2023-01-05T17:11:36.796Z,3.17
2023-01-05T17:14:06.453Z,3.17
2023-01-05T17:16:33.880Z,2.95
2023-01-05T17:19:02.400Z,3.35
2023-01-05T17:21:33.109Z,4.25
2023-01-05T17:24:01.076Z,5.55
2023-01-05T17:26:34.095Z,4.82
2023-01-05T17:31:35.788Z,3.90
2023-01-05T17:34:03.529Z,3.20
2023-01-05T17:36:33.050Z,2.92
2023-01-05T17:39:00.819Z,2.22
2023-01-05T17:41:28.318Z,2.30
2023-01-05T17:43:55.646Z,1.92
2023-01-05T17:46:29.290Z,2.30
2023-01-05T17:48:59.084Z,1.98
2023-01-05T17:51:28.352Z,1.88
2023-01-05T17:53:59.761Z,1.80
2023-01-05T17:56:27.432Z,1.80
2023-01-05T17:58:54.693Z,2.00
2023-01-05T18:01:22.042Z,1.85
2023-01-05T18:03:49.350Z,1.60
2023-01-05T18:06:16.691Z,1.52
2023-01-05T18:08:44.201Z,1.80
2023-01-05T18:11:11.500Z,1.98
2023-01-05T18:16:19.910Z,1.95
2023-01-05T18:18:47.413Z,1.70
2023-01-05T18:21:14.726Z,1.83
2023-01-05T18:23:42.066Z,2.10
2023-01-05T18:26:10.494Z,2.83
2023-01-05T18:28:38.598Z,2.50
2023-01-05T18:31:14.112Z,2.88
2023-01-05T18:33:42.310Z,3.28
2023-01-05T18:36:13.988Z,3.03
2023-01-05T18:38:42.443Z,3.20
2023-01-05T18:41:10.289Z,3.08
2023-01-05T18:43:37.830Z,3.00
2023-01-05T18:46:05.543Z,2.63
2023-01-05T18:48:33.141Z,2.75
2023-01-05T18:51:00.484Z,2.63
2023-01-05T18:53:27.837Z,2.47
2023-01-05T18:55:55.086Z,2.10
2023-01-05T18:58:22.421Z,2.10
2023-01-05T19:00:49.818Z,2.10
2023-01-05T19:03:17.099Z,2.38
2023-01-05T19:05:44.845Z,2.70
2023-01-05T19:08:13.629Z,2.30
2023-01-05T19:10:41.339Z,2.20
2023-01-05T19:13:09.151Z,2.10
2023-01-05T19:15:38.097Z,2.15
2023-01-05T19:18:06.303Z,2.67
2023-01-05T19:20:33.567Z,2.45
2023-01-05T19:23:01.206Z,2.90
2023-01-05T19:25:29.631Z,2.78
2023-01-05T19:28:01.469Z,2.90
2023-01-05T19:30:30.402Z,2.80
2023-01-05T19:32:57.594Z,2.78
2023-01-05T19:35:24.848Z,2.53
2023-01-05T19:37:52.143Z,2.30
2023-01-05T19:40:19.475Z,2.00
2023-01-05T19:42:46.780Z,2.15
2023-01-05T19:45:14.256Z,1.80
2023-01-05T19:47:43.085Z,2.40
2023-01-05T19:50:11.954Z,2.10
2023-01-05T19:52:39.989Z,2.10
2023-01-05T19:55:07.732Z,2.30
2023-01-05T19:57:34.939Z,2.00
2023-01-05T20:00:02.363Z,2.47
2023-01-05T20:02:39.496Z,2.33
2023-01-05T20:05:07.275Z,2.63
2023-01-05T20:07:34.487Z,2.22
2023-01-05T20:10:01.720Z,2.58
2023-01-05T20:12:29.008Z,2.20
2023-01-05T20:14:56.540Z,2.40
2023-01-05T20:17:23.802Z,2.03
2023-01-05T20:19:51.124Z,2.40
2023-01-05T20:24:59.726Z,2.58
2023-01-05T20:27:26.989Z,2.67
2023-01-05T20:29:54.254Z,2.95
2023-01-05T20:35:05.057Z,2.50
2023-01-05T20:37:33.130Z,2.45
2023-01-05T20:40:02.159Z,2.40
2023-01-05T20:42:30.559Z,3.38
2023-01-05T20:44:57.929Z,3.30
2023-01-05T20:52:47.585Z,2.58
2023-01-05T20:55:17.870Z,3.05
2023-01-05T20:57:46.006Z,3.00
2023-01-05T21:00:15.758Z,3.30
2023-01-05T21:02:43.068Z,3.85
2023-01-05T21:05:11.920Z,3.63
2023-01-05T21:07:39.226Z,3.80
2023-01-05T21:10:06.862Z,4.00
2023-01-05T21:12:34.498Z,3.70
2023-01-05T21:15:01.723Z,4.43
2023-01-05T21:17:29.006Z,3.72
2023-01-05T21:19:57.919Z,3.70
2023-01-05T21:22:25.233Z,3.40
2023-01-05T21:24:52.485Z,4.72
2023-01-05T21:27:19.737Z,4.35
2023-01-05T21:29:46.945Z,4.00
2023-01-05T21:32:14.336Z,4.22
2023-01-05T21:40:04.591Z,4.05
2023-01-05T21:42:40.738Z,4.13
2023-01-05T21:45:10.564Z,4.82
2023-01-05T21:47:38.351Z,5.53
2023-01-05T21:53:06.874Z,5.03
2023-01-05T21:55:52.767Z,4.30
2023-01-05T21:58:20.083Z,4.22
2023-01-05T22:00:47.350Z,5.20
2023-01-05T22:03:14.693Z,4.68
2023-01-05T22:05:41.862Z,4.25
2023-01-05T22:08:09.205Z,4.35
2023-01-05T22:10:36.463Z,4.22
2023-01-05T22:13:06.287Z,4.38
2023-01-05T22:15:33.503Z,4.57
2023-01-05T22:18:00.891Z,4.25
2023-01-05T22:20:28.536Z,4.68
2023-01-05T22:22:55.894Z,4.32
2023-01-05T22:25:23.163Z,5.18
2023-01-05T22:27:50.412Z,4.90
2023-01-05T22:30:18.222Z,4.80
2023-01-05T22:32:45.531Z,4.85
2023-01-05T22:35:12.855Z,4.57
2023-01-05T22:37:40.233Z,4.95
2023-01-05T22:40:08.564Z,5.28
2023-01-05T22:42:35.883Z,4.70
2023-01-05T22:45:03.223Z,4.68
2023-01-05T22:47:31.098Z,4.18
2023-01-05T22:49:58.280Z,3.97
2023-01-05T22:52:25.626Z,3.92
2023-01-05T22:54:53.533Z,3.95
2023-01-05T22:57:20.884Z,3.95
2023-01-05T22:59:48.099Z,3.80
2023-01-05T23:02:15.687Z,3.25
2023-01-05T23:04:42.957Z,3.35
2023-01-05T23:07:10.332Z,3.75
2023-01-05T23:09:37.764Z,3.83
2023-01-05T23:12:05.290Z,4.00
2023-01-05T23:14:32.549Z,4.50
2023-01-05T23:16:59.878Z,3.92
2023-01-05T23:19:27.117Z,4.05
2023-01-05T23:21:54.448Z,4.18
2023-01-05T23:24:21.977Z,3.80
2023-01-05T23:26:49.233Z,3.72
2023-01-05T23:29:16.540Z,4.20
2023-01-05T23:31:43.855Z,4.35
2023-01-05T23:34:11.090Z,3.72
2023-01-05T23:36:38.482Z,4.03
2023-01-05T23:39:05.809Z,3.97
2023-01-05T23:41:33.244Z,3.80
2023-01-05T23:44:00.518Z,3.72
2023-01-05T23:46:28.114Z,3.63
2023-01-05T23:48:55.580Z,4.47
2023-01-05T23:51:23.071Z,4.10
2023-01-05T23:53:52.202Z,3.80
2023-01-05T23:56:25.664Z,3.75
2023-01-05T23:59:04.403Z,3.70
